Time;durP1;ratioP1;P1;durP2;ratioP2;P2;SDS_P1;SDS_P2;PMS_P1;PMS_P2;Temp;Humidity;BMP_temperature;BMP_pressure;BME280_temperature;BME280_humidity;BME280_pressure;Samples;Min_cycle;Max_cycle;Signal;HPM_P1;HPM_P2
2023/05/15 00:10:57;;;;;;;3.15;2.30;;;;;;;;;;4978061;28;20404;-58
2023/05/15 00:17:00;;;;;;;3.08;2.10;;;;;;;;;;4979110;28;20077;-59
2023/05/15 00:39:01;;;;;;;2.55;1.92;;;;;;;;;;4994814;28;20053;-58
2023/05/15 00:42:10;;;;;;;2.33;1.92;;;;;;;;;;4969347;28;20043;-58
2023/05/15 00:45:25;;;;;;;2.08;1.75;;;;;;;;;;4963896;28;20043;-59
2023/05/15 00:48:15;;;;;;;2.60;2.00;;;;;;;;;;4962389;28;20061;-59
2023/05/15 00:54:46;;;;;;;3.63;1.98;;;;;;;;;;4966233;28;20069;-58
2023/05/15 00:58:13;;;;;;;3.30;2.50;;;;;;;;;;4941605;28;20074;-58
2023/05/15 01:01:01;;;;;;;2.78;2.08;;;;;;;;;;4957995;28;20488;-58
2023/05/15 01:04:10;;;;;;;2.95;2.03;;;;;;;;;;4959307;28;20057;-58
2023/05/15 01:07:26;;;;;;;3.05;1.80;;;;;;;;;;4944199;28;20435;-59
2023/05/15 01:10:32;;;;;;;2.70;2.20;;;;;;;;;;4994407;28;20045;-58
2023/05/15 01:13:42;;;;;;;2.70;1.90;;;;;;;;;;4965038;28;20046;-58
2023/05/15 01:16:40;;;;;;;;;;;;;;;;;;4956188;28;20167;-59
2023/05/15 01:25:52;;;;;;;2.92;1.88;;;;;;;;;;4978749;28;20529;-58
2023/05/15 01:32:16;;;;;;;2.00;1.70;;;;;;;;;;4979189;28;20695;-58
2023/05/15 01:35:37;;;;;;;2.83;2.35;;;;;;;;;;4980177;28;20046;-58
2023/05/15 01:45:31;;;;;;;2.60;1.95;;;;;;;;;;4996359;28;20072;-59
2023/05/15 01:48:57;;;;;;;3.38;2.15;;;;;;;;;;4917264;28;20099;-59
2023/05/15 01:58:37;;;;;;;2.90;1.83;;;;;;;;;;4972186;28;20128;-59
2023/05/15 02:01:16;;;;;;;2.90;2.25;;;;;;;;;;4957132;28;20036;-59
2023/05/15 02:10:53;;;;;;;2.67;1.92;;;;;;;;;;4997882;28;20450;-59
2023/05/15 02:13:53;;;;;;;2.40;1.83;;;;;;;;;;4954869;28;20046;-59
2023/05/15 02:16:42;;;;;;;2.92;1.73;;;;;;;;;;4999456;28;20396;-58
2023/05/15 02:19:57;;;;;;;3.00;2.13;;;;;;;;;;4976378;28;20426;-57
2023/05/15 02:26:10;;;;;;;2.67;1.88;;;;;;;;;;4935691;28;19914;-59
2023/05/15 02:29:10;;;;;;;2.88;1.83;;;;;;;;;;4958966;28;20530;-58
2023/05/15 02:32:18;;;;;;;2.45;1.80;;;;;;;;;;4971113;28;20108;-58
2023/05/15 02:38:32;;;;;;;2.45;1.80;;;;;;;;;;4986603;28;20139;-58
2023/05/15 02:41:57;;;;;;;2.65;1.80;;;;;;;;;;4983484;28;20100;-58
2023/05/15 02:45:22;;;;;;;2.88;2.22;;;;;;;;;;4983079;28;20546;-58
2023/05/15 02:48:22;;;;;;;2.47;1.70;;;;;;;;;;4990823;28;20509;-58
2023/05/15 02:51:10;;;;;;;2.38;1.80;;;;;;;;;;4977915;28;20045;-57
2023/05/15 03:06:36;;;;;;;2.50;1.70;;;;;;;;;;4982195;28;20498;-57
2023/05/15 03:09:51;;;;;;;2.30;1.60;;;;;;;;;;4977771;28;20513;-59
2023/05/15 03:13:07;;;;;;;1.88;1.40;;;;;;;;;;4995156;28;20442;-60
2023/05/15 03:16:37;;;;;;;2.17;1.70;;;;;;;;;;4982547;28;20453;-59
2023/05/15 03:19:24;;;;;;;2.35;1.80;;;;;;;;;;4972197;28;20041;-59
2023/05/15 03:25:47;;;;;;;2.63;1.95;;;;;;;;;;4954477;28;19910;-59
2023/05/15 03:29:04;;;;;;;2.27;1.83;;;;;;;;;;4950521;28;20046;-60
2023/05/15 03:32:21;;;;;;;2.25;1.80;;;;;;;;;;4943698;28;20889;-57
2023/05/15 03:35:47;;;;;;;2.38;1.52;;;;;;;;;;4977353;28;20057;-59
2023/05/15 03:38:36;;;;;;;2.53;1.70;;;;;;;;;;4971209;28;20089;-59
2023/05/15 03:41:36;;;;;;;2.17;1.67;;;;;;;;;;4979687;28;20105;-58
2023/05/15 03:44:43;;;;;;;3.50;1.67;;;;;;;;;;4983169;28;20158;-58
2023/05/15 03:47:30;;;;;;;2.38;1.58;;;;;;;;;;4977415;28;20618;-58
2023/05/15 03:50:43;;;;;;;2.15;1.70;;;;;;;;;;4991862;28;20137;-59
2023/05/15 03:53:53;;;;;;;3.30;1.92;;;;;;;;;;4987313;28;20034;-59
2023/05/15 03:56:42;;;;;;;3.25;1.90;;;;;;;;;;4960456;28;20393;-58
2023/05/15 03:59:40;;;;;;;2.60;1.70;;;;;;;;;;4980205;28;20026;-60
2023/05/15 04:06:11;;;;;;;2.63;1.80;;;;;;;;;;4945516;28;20108;-58
2023/05/15 04:09:10;;;;;;;5.63;1.67;;;;;;;;;;4975987;28;20110;-59
2023/05/15 04:12:00;;;;;;;2.30;1.65;;;;;;;;;;4949483;28;20121;-61
2023/05/15 04:14:55;;;;;;;2.92;1.80;;;;;;;;;;4957997;28;20503;-59
2023/05/15 04:17:52;;;;;;;2.10;1.60;;;;;;;;;;4937898;28;20452;-59
2023/05/15 04:20:43;;;;;;;2.25;1.60;;;;;;;;;;4962293;28;20042;-58
2023/05/15 04:23:40;;;;;;;2.35;1.88;;;;;;;;;;4954108;28;20049;-58
2023/05/15 04:26:37;;;;;;;1.92;1.50;;;;;;;;;;4960414;28;20054;-59
2023/05/15 04:29:33;;;;;;;2.20;1.60;;;;;;;;;;4947363;28;20511;-58
2023/05/15 04:32:14;;;;;;;2.10;1.42;;;;;;;;;;4909346;28;20062;-58
2023/05/15 04:35:14;;;;;;;5.85;1.67;;;;;;;;;;4957675;28;20330;-58
2023/05/15 04:38:06;;;;;;;2.03;1.50;;;;;;;;;;4959028;28;20030;-58
2023/05/15 04:40:57;;;;;;;2.63;1.45;;;;;;;;;;4970963;28;20081;-57
2023/05/15 04:43:53;;;;;;;1.98;1.50;;;;;;;;;;4964298;28;20043;-58
2023/05/15 04:46:59;;;;;;;2.13;1.60;;;;;;;;;;4933074;28;20047;-57
2023/05/15 04:52:46;;;;;;;2.47;1.75;;;;;;;;;;4971063;28;20190;-57
2023/05/15 04:55:50;;;;;;;1.92;1.40;;;;;;;;;;4975104;28;20034;-58
2023/05/15 04:58:32;;;;;;;2.85;1.58;;;;;;;;;;4921378;28;20114;-58
2023/05/15 05:01:24;;;;;;;2.10;1.40;;;;;;;;;;4983004;28;20121;-57
2023/05/15 05:04:18;;;;;;;2.10;1.50;;;;;;;;;;4967546;28;20467;-58
2023/05/15 05:07:06;;;;;;;2.33;1.60;;;;;;;;;;4960140;28;20521;-57
2023/05/15 05:09:54;;;;;;;2.50;1.60;;;;;;;;;;4963769;28;20030;-57
2023/05/15 05:12:40;;;;;;;4.25;2.00;;;;;;;;;;4983540;28;20030;-61
2023/05/15 05:15:29;;;;;;;3.15;1.70;;;;;;;;;;4974615;28;20524;-58
2023/05/15 05:18:17;;;;;;;3.65;1.63;;;;;;;;;;4983073;28;20034;-58
2023/05/15 05:21:06;;;;;;;3.38;1.73;;;;;;;;;;4966251;28;20522;-59
2023/05/15 05:23:53;;;;;;;5.50;2.05;;;;;;;;;;4964994;28;20038;-59
2023/05/15 05:26:53;;;;;;;4.32;1.83;;;;;;;;;;4976678;28;20089;-58
2023/05/15 05:29:58;;;;;;;5.88;1.92;;;;;;;;;;4969194;28;20453;-60
2023/05/15 05:33:03;;;;;;;4.72;1.80;;;;;;;;;;4951662;28;20290;-59
2023/05/15 05:35:59;;;;;;;4.32;1.67;;;;;;;;;;4960789;28;20486;-61
2023/05/15 05:38:58;;;;;;;7.15;1.77;;;;;;;;;;4960182;28;20054;-61
2023/05/15 05:41:47;;;;;;;5.93;2.38;;;;;;;;;;4956183;28;20472;-58
2023/05/15 05:44:48;;;;;;;4.43;1.80;;;;;;;;;;4944928;28;20039;-61
2023/05/15 05:47:52;;;;;;;6.05;1.90;;;;;;;;;;4959012;28;20044;-60
2023/05/15 05:50:50;;;;;;;5.35;2.10;;;;;;;;;;4942460;28;20547;-59
2023/05/15 05:53:46;;;;;;;4.60;1.85;;;;;;;;;;4926925;28;20565;-59
2023/05/15 05:56:42;;;;;;;5.75;1.95;;;;;;;;;;4945251;28;20034;-58
2023/05/15 05:59:45;;;;;;;5.35;2.03;;;;;;;;;;4943958;28;20031;-60
2023/05/15 06:02:37;;;;;;;9.68;2.05;;;;;;;;;;4946343;28;20125;-57
2023/05/15 06:05:35;;;;;;;3.65;1.73;;;;;;;;;;4968261;28;20050;-58
2023/05/15 06:08:31;;;;;;;4.53;1.83;;;;;;;;;;4962226;28;20129;-59
2023/05/15 06:11:29;;;;;;;6.68;1.95;;;;;;;;;;4951670;28;20046;-59
2023/05/15 06:14:19;;;;;;;4.63;2.10;;;;;;;;;;4955960;28;20044;-60
2023/05/15 06:20:22;;;;;;;5.45;2.17;;;;;;;;;;4957825;28;20439;-66
2023/05/15 06:26:50;;;;;;;4.55;2.38;;;;;;;;;;4950324;28;20068;-61
2023/05/15 06:29:57;;;;;;;5.72;2.25;;;;;;;;;;4955490;28;20421;-59
2023/05/15 06:33:28;;;;;;;7.40;2.05;;;;;;;;;;4929784;28;20057;-59
2023/05/15 06:39:27;;;;;;;10.80;3.20;;;;;;;;;;4969834;28;20367;-60
2023/05/15 06:42:19;;;;;;;10.27;2.40;;;;;;;;;;4959677;28;20049;-58
2023/05/15 06:45:09;;;;;;;8.18;2.40;;;;;;;;;;4947769;28;20122;-61
2023/05/15 06:47:47;;;;;;;10.07;2.47;;;;;;;;;;4941480;28;20039;-61
2023/05/15 06:50:29;;;;;;;8.45;2.70;;;;;;;;;;4935459;28;20395;-62
2023/05/15 06:53:31;;;;;;;6.35;2.63;;;;;;;;;;4960603;28;20050;-61
2023/05/15 06:56:30;;;;;;;8.00;2.80;;;;;;;;;;4965470;28;20046;-61
2023/05/15 07:02:33;;;;;;;8.30;2.63;;;;;;;;;;4944648;28;20057;-61
2023/05/15 07:05:22;;;;;;;7.53;2.72;;;;;;;;;;4949929;28;20049;-61
2023/05/15 07:08:19;;;;;;;8.68;3.03;;;;;;;;;;4963578;28;20026;-57
2023/05/15 07:11:26;;;;;;;10.80;2.80;;;;;;;;;;4969391;28;20117;-61
2023/05/15 07:14:25;;;;;;;5.03;2.22;;;;;;;;;;4964965;28;20417;-61
2023/05/15 07:17:39;;;;;;;6.57;2.40;;;;;;;;;;4927830;28;20039;-58
2023/05/15 07:20:29;;;;;;;6.57;2.22;;;;;;;;;;4960778;28;20455;-61
2023/05/15 07:23:35;;;;;;;6.85;2.33;;;;;;;;;;4966114;28;20058;-61
2023/05/15 07:26:42;;;;;;;9.00;2.33;;;;;;;;;;4953844;28;20387;-66
2023/05/15 07:29:31;;;;;;;6.40;2.20;;;;;;;;;;4969948;28;20132;-61
2023/05/15 07:32:09;;;;;;;5.68;2.33;;;;;;;;;;4977692;28;20027;-62
2023/05/15 07:35:06;;;;;;;9.70;2.80;;;;;;;;;;4959814;28;20042;-62
2023/05/15 07:41:18;;;;;;;3.25;2.03;;;;;;;;;;4979900;28;20060;-59
2023/05/15 07:44:29;;;;;;;4.65;2.03;;;;;;;;;;4970173;28;20055;-60
2023/05/15 07:47:45;;;;;;;5.07;2.20;;;;;;;;;;4980129;28;20647;-60
2023/05/15 07:54:00;;;;;;;6.65;2.10;;;;;;;;;;4962002;28;20045;-62
2023/05/15 07:57:25;;;;;;;7.57;2.40;;;;;;;;;;4975210;28;20045;-62
2023/05/15 08:00:39;;;;;;;5.28;2.60;;;;;;;;;;4989374;28;20066;-61
2023/05/15 08:10:23;;;;;;;7.50;2.60;;;;;;;;;;4951681;28;20050;-62
2023/05/15 08:16:46;;;;;;;4.03;2.30;;;;;;;;;;4969616;28;20049;-61
2023/05/15 08:26:36;;;;;;;6.88;2.28;;;;;;;;;;4965663;28;20045;-65
2023/05/15 08:29:53;;;;;;;8.15;2.80;;;;;;;;;;4943795;28;20035;-65
2023/05/15 08:33:18;;;;;;;5.68;2.17;;;;;;;;;;4987752;28;20030;-65
2023/05/15 08:36:45;;;;;;;5.15;2.25;;;;;;;;;;4950422;28;20094;-65
2023/05/15 08:39:49;;;;;;;3.70;2.35;;;;;;;;;;4972360;28;20113;-58
2023/05/15 08:46:03;;;;;;;6.85;2.50;;;;;;;;;;4995107;28;20037;-62
2023/05/15 08:48:53;;;;;;;4.80;2.40;;;;;;;;;;4989440;28;20081;-62
2023/05/15 08:52:18;;;;;;;7.05;2.53;;;;;;;;;;4985291;28;20052;-62
2023/05/15 08:55:26;;;;;;;6.45;2.40;;;;;;;;;;4980590;28;20023;-61
2023/05/15 08:58:50;;;;;;;5.28;2.10;;;;;;;;;;4949057;28;20467;-63
2023/05/15 09:05:13;;;;;;;4.25;2.13;;;;;;;;;;4965777;28;20065;-60
2023/05/15 09:08:22;;;;;;;7.45;2.88;;;;;;;;;;4966677;28;20467;-61
2023/05/15 09:11:25;;;;;;;5.38;2.97;;;;;;;;;;4955768;28;20129;-57
2023/05/15 09:14:16;;;;;;;7.15;3.00;;;;;;;;;;4960399;28;20115;-57
2023/05/15 09:17:09;;;;;;;8.10;3.00;;;;;;;;;;4954135;28;20038;-59
2023/05/15 09:20:03;;;;;;;11.48;2.50;;;;;;;;;;4964900;28;20168;-57
2023/05/15 09:22:54;;;;;;;8.93;2.60;;;;;;;;;;4961122;28;20503;-60
2023/05/15 09:25:52;;;;;;;34.53;8.65;;;;;;;;;;4953871;28;20034;-62
2023/05/15 09:28:44;;;;;;;93.82;18.35;;;;;;;;;;4953121;28;20529;-59
2023/05/15 09:31:24;;;;;;;56.13;11.50;;;;;;;;;;4967670;28;20105;-64
2023/05/15 09:34:33;;;;;;;185.10;86.47;;;;;;;;;;4953909;28;20128;-61
2023/05/15 09:37:28;;;;;;;105.40;44.35;;;;;;;;;;4964958;28;20030;-61
2023/05/15 09:40:23;;;;;;;100.43;45.50;;;;;;;;;;4958621;28;20149;-62
2023/05/15 09:43:04;;;;;;;92.15;40.20;;;;;;;;;;4957309;28;20566;-61
2023/05/15 09:45:52;;;;;;;80.72;35.25;;;;;;;;;;4931080;28;20069;-62
2023/05/15 09:48:37;;;;;;;68.80;30.10;;;;;;;;;;4960351;28;20035;-61
2023/05/15 09:51:27;;;;;;;64.55;27.50;;;;;;;;;;4961557;28;20133;-62
2023/05/15 09:54:14;;;;;;;65.18;28.75;;;;;;;;;;4948782;28;20177;-61
2023/05/15 09:57:04;;;;;;;55.10;25.63;;;;;;;;;;4960976;28;20039;-58
2023/05/15 09:59:56;;;;;;;56.10;25.95;;;;;;;;;;4957951;28;20037;-57
2023/05/15 10:05:30;;;;;;;52.15;23.58;;;;;;;;;;4948199;28;20085;-62
2023/05/15 10:08:08;;;;;;;51.47;22.90;;;;;;;;;;4941993;28;20045;-58
2023/05/15 10:10:58;;;;;;;48.75;22.83;;;;;;;;;;4955294;28;20053;-60
2023/05/15 10:13:36;;;;;;;48.00;22.80;;;;;;;;;;4955090;28;20042;-65
2023/05/15 10:16:44;;;;;;;41.80;20.67;;;;;;;;;;4948829;28;22786;-57
2023/05/15 10:19:32;;;;;;;41.47;20.75;;;;;;;;;;4955921;28;20042;-62
2023/05/15 10:22:15;;;;;;;43.55;19.80;;;;;;;;;;4962821;28;20073;-64
2023/05/15 10:25:14;;;;;;;45.67;20.05;;;;;;;;;;4938607;28;20718;-65
2023/05/15 10:28:23;;;;;;;38.42;20.88;;;;;;;;;;4960715;28;20076;-65
2023/05/15 10:31:12;;;;;;;39.58;19.15;;;;;;;;;;4961413;28;20042;-65
2023/05/15 10:34:07;;;;;;;35.80;18.63;;;;;;;;;;4960089;28;20550;-64
2023/05/15 10:36:49;;;;;;;34.17;18.35;;;;;;;;;;4947884;28;20121;-62
2023/05/15 10:39:38;;;;;;;33.45;18.52;;;;;;;;;;4434229;28;15262817;-64
2023/05/15 10:42:42;;;;;;;43.45;18.52;;;;;;;;;;4950142;28;20046;-62
2023/05/15 10:45:45;;;;;;;39.15;18.05;;;;;;;;;;4955373;28;20034;-59
2023/05/15 10:48:33;;;;;;;36.35;18.20;;;;;;;;;;4962524;28;20474;-63
2023/05/15 10:51:26;;;;;;;35.42;17.30;;;;;;;;;;4964112;28;20809;-62
2023/05/15 10:54:31;;;;;;;36.95;17.92;;;;;;;;;;4971319;28;20054;-59
2023/05/15 10:57:26;;;;;;;34.60;16.88;;;;;;;;;;4956075;28;20528;-59
2023/05/15 11:00:15;;;;;;;33.60;16.35;;;;;;;;;;4961797;28;20057;-62
2023/05/15 11:03:03;;;;;;;34.75;16.80;;;;;;;;;;4937550;28;20061;-63
2023/05/15 11:06:04;;;;;;;31.33;16.10;;;;;;;;;;4964846;28;20046;-61
2023/05/15 11:08:59;;;;;;;34.70;16.98;;;;;;;;;;4939204;28;20569;-61
2023/05/15 11:11:56;;;;;;;28.60;15.27;;;;;;;;;;4950774;28;20054;-63
2023/05/15 11:14:45;;;;;;;34.17;15.85;;;;;;;;;;4962625;28;20030;-62
2023/05/15 11:17:34;;;;;;;31.80;15.93;;;;;;;;;;4953642;28;20043;-60
2023/05/15 11:20:23;;;;;;;29.17;15.63;;;;;;;;;;4933509;28;20049;-61
2023/05/15 11:23:10;;;;;;;29.17;14.40;;;;;;;;;;4953144;28;20050;-62
2023/05/15 11:26:02;;;;;;;29.58;14.88;;;;;;;;;;4949015;28;20042;-66
2023/05/15 11:28:54;;;;;;;27.38;15.07;;;;;;;;;;4922485;28;20046;-68
2023/05/15 11:31:50;;;;;;;29.50;14.57;;;;;;;;;;4957840;28;20093;-68
2023/05/15 11:34:49;;;;;;;29.13;14.48;;;;;;;;;;4958878;28;20038;-67
2023/05/15 11:40:43;;;;;;;25.52;13.48;;;;;;;;;;4951651;28;20071;-63
2023/05/15 11:43:42;;;;;;;24.27;13.82;;;;;;;;;;4949308;28;20054;-57
2023/05/15 11:46:31;;;;;;;25.38;13.82;;;;;;;;;;4964405;28;20102;-67
2023/05/15 11:49:18;;;;;;;26.55;13.80;;;;;;;;;;4944998;28;20054;-67
2023/05/15 11:52:08;;;;;;;26.63;12.82;;;;;;;;;;4982435;28;20296;-67
2023/05/15 11:55:05;;;;;;;24.33;13.80;;;;;;;;;;4956513;28;20621;-65
2023/05/15 11:58:00;;;;;;;22.23;12.10;;;;;;;;;;4954514;28;20051;-67
2023/05/15 12:00:55;;;;;;;23.75;12.80;;;;;;;;;;4969233;28;20605;-60
2023/05/15 12:03:52;;;;;;;26.77;13.27;;;;;;;;;;4969990;28;20077;-64
2023/05/15 12:06:46;;;;;;;25.33;12.93;;;;;;;;;;4962428;28;20062;-64
2023/05/15 12:09:32;;;;;;;23.13;12.80;;;;;;;;;;4976675;28;20046;-58
2023/05/15 12:12:27;;;;;;;24.35;12.88;;;;;;;;;;4967147;28;20057;-64
2023/05/15 12:15:22;;;;;;;23.17;12.30;;;;;;;;;;4969011;28;20096;-60
2023/05/15 12:18:25;;;;;;;22.58;12.45;;;;;;;;;;4960620;28;20125;-65
2023/05/15 12:21:14;;;;;;;19.42;11.80;;;;;;;;;;4951272;28;20046;-68
2023/05/15 12:24:13;;;;;;;24.38;12.57;;;;;;;;;;4958122;28;20054;-64
2023/05/15 12:27:07;;;;;;;24.17;12.60;;;;;;;;;;4972819;28;20029;-64
2023/05/15 12:29:56;;;;;;;21.45;12.05;;;;;;;;;;4962562;28;20557;-66
2023/05/15 12:32:52;;;;;;;20.23;11.75;;;;;;;;;;4978243;28;20047;-66
2023/05/15 12:35:44;;;;;;;21.85;11.85;;;;;;;;;;4950344;28;20074;-59
2023/05/15 12:38:48;;;;;;;21.63;11.48;;;;;;;;;;4950445;28;20049;-66
2023/05/15 12:42:04;;;;;;;20.65;11.00;;;;;;;;;;4970398;28;20047;-63
2023/05/15 12:45:19;;;;;;;17.52;10.90;;;;;;;;;;4967011;28;20507;-65
2023/05/15 12:48:40;;;;;;;22.27;12.18;;;;;;;;;;4957292;28;20559;-65
2023/05/15 12:51:55;;;;;;;16.27;9.40;;;;;;;;;;4981315;28;20060;-63
2023/05/15 12:58:09;;;;;;;12.63;9.38;;;;;;;;;;4964889;28;20053;-70
2023/05/15 13:01:25;;;;;;;14.35;9.65;;;;;;;;;;4988902;28;20420;-63
2023/05/15 13:08:04;;;;;;;14.55;8.57;;;;;;;;;;4978976;28;20186;-60
2023/05/15 13:11:14;;;;;;;12.37;8.30;;;;;;;;;;4959714;28;20736;-61
2023/05/15 13:14:39;;;;;;;13.32;8.18;;;;;;;;;;4965629;28;20631;-61
2023/05/15 13:17:28;;;;;;;12.57;8.07;;;;;;;;;;4996579;28;20474;-61
2023/05/15 13:23:30;;;;;;;12.45;7.65;;;;;;;;;;4984504;28;20481;-60
2023/05/15 13:26:49;;;;;;;11.05;7.57;;;;;;;;;;4965120;28;20407;-60
2023/05/15 13:30:05;;;;;;;11.48;6.75;;;;;;;;;;4938475;28;20042;-59
2023/05/15 13:32:53;;;;;;;12.15;7.35;;;;;;;;;;4980477;28;20117;-62
2023/05/15 13:36:14;;;;;;;9.70;6.78;;;;;;;;;;4962466;28;20046;-61
2023/05/15 13:39:16;;;;;;;11.95;6.57;;;;;;;;;;4982688;28;20026;-60
2023/05/15 13:42:04;;;;;;;13.98;6.57;;;;;;;;;;4930808;28;20097;-61
2023/05/15 13:48:30;;;;;;;8.68;6.15;;;;;;;;;;4947244;28;20040;-62
2023/05/15 13:51:35;;;;;;;9.52;6.75;;;;;;;;;;4936015;28;20038;-61
2023/05/15 13:54:58;;;;;;;9.13;6.30;;;;;;;;;;4932836;28;20064;-68
2023/05/15 13:57:50;;;;;;;8.88;5.80;;;;;;;;;;4938324;28;20035;-62
2023/05/15 14:01:13;;;;;;;10.88;5.70;;;;;;;;;;4935020;28;20394;-65
2023/05/15 14:04:03;;;;;;;10.00;5.80;;;;;;;;;;4960972;28;20054;-58
2023/05/15 14:07:10;;;;;;;11.15;5.90;;;;;;;;;;4959393;28;20101;-64
2023/05/15 14:09:59;;;;;;;9.15;5.95;;;;;;;;;;4962115;28;20495;-57
2023/05/15 14:12:49;;;;;;;7.97;6.07;;;;;;;;;;4966771;28;20038;-67
2023/05/15 14:15:46;;;;;;;9.38;5.72;;;;;;;;;;4974070;28;20054;-65
2023/05/15 14:19:02;;;;;;;8.77;6.20;;;;;;;;;;4981667;28;20625;-63
2023/05/15 14:22:19;;;;;;;14.00;6.43;;;;;;;;;;4903105;28;20420;-63
2023/05/15 14:25:33;;;;;;;11.82;6.88;;;;;;;;;;4961465;28;20038;-61
2023/05/15 14:28:22;;;;;;;9.95;6.35;;;;;;;;;;4981933;28;20073;-59
2023/05/15 14:31:20;;;;;;;12.95;6.50;;;;;;;;;;4964059;28;20039;-63
2023/05/15 14:34:46;;;;;;;12.35;6.75;;;;;;;;;;4961305;28;20644;-65
2023/05/15 14:38:02;;;;;;;11.68;6.38;;;;;;;;;;4971338;28;20038;-56
2023/05/15 14:41:09;;;;;;;12.57;5.97;;;;;;;;;;4974524;28;20038;-59
2023/05/15 14:44:07;;;;;;;8.77;6.10;;;;;;;;;;4962958;28;20454;-64
2023/05/15 14:50:30;;;;;;;9.32;5.93;;;;;;;;;;4984848;28;20033;-65
2023/05/15 14:53:47;;;;;;;11.13;6.05;;;;;;;;;;4936722;28;20153;-62
2023/05/15 14:56:25;;;;;;;11.10;6.75;;;;;;;;;;4965822;28;20053;-66
2023/05/15 14:58:55;;;;;;;11.15;5.65;;;;;;;;;;4976843;28;20030;-64
2023/05/15 15:02:20;;;;;;;10.75;6.68;;;;;;;;;;4960368;28;20054;-63
2023/05/15 15:05:27;;;;;;;11.90;6.20;;;;;;;;;;4954959;28;20042;-67
2023/05/15 15:08:33;;;;;;;12.52;6.05;;;;;;;;;;4942518;28;20042;-66
2023/05/15 15:11:59;;;;;;;10.77;6.18;;;;;;;;;;4948997;28;20040;-66
2023/05/15 15:15:17;;;;;;;11.25;5.30;;;;;;;;;;4940261;28;20066;-67
2023/05/15 15:18:32;;;;;;;9.57;5.05;;;;;;;;;;4939738;28;20419;-63
2023/05/15 15:21:48;;;;;;;10.98;5.00;;;;;;;;;;4975513;28;20455;-65
2023/05/15 15:25:14;;;;;;;9.02;4.50;;;;;;;;;;4917623;28;20055;-64
2023/05/15 15:31:19;;;;;;;8.50;4.68;;;;;;;;;;4978315;28;20418;-64
2023/05/15 15:34:16;;;;;;;9.93;4.80;;;;;;;;;;4949881;28;20047;-63
2023/05/15 15:40:22;;;;;;;7.90;4.35;;;;;;;;;;4980324;28;20124;-66
2023/05/15 15:43:10;;;;;;;7.50;4.40;;;;;;;;;;4964180;28;20056;-60
2023/05/15 15:46:34;;;;;;;6.78;4.35;;;;;;;;;;4996646;28;20081;-62
2023/05/15 15:49:48;;;;;;;7.47;4.63;;;;;;;;;;4970883;28;20423;-65
2023/05/15 15:52:50;;;;;;;8.07;4.72;;;;;;;;;;4975209;28;20041;-64
2023/05/15 15:55:37;;;;;;;8.27;5.13;;;;;;;;;;4964971;28;20034;-60
2023/05/15 15:58:34;;;;;;;8.38;4.80;;;;;;;;;;4980896;28;20043;-63
2023/05/15 16:01:51;;;;;;;8.23;4.72;;;;;;;;;;4953745;28;20218;-58
2023/05/15 16:04:30;;;;;;;6.07;4.75;;;;;;;;;;4975498;28;20401;-66
2023/05/15 16:07:12;;;;;;;8.07;4.90;;;;;;;;;;4970581;28;20042;-67
2023/05/15 16:10:36;;;;;;;6.95;4.75;;;;;;;;;;4979339;28;20097;-65
2023/05/15 16:13:33;;;;;;;7.28;5.07;;;;;;;;;;4953102;28;20125;-67
2023/05/15 16:16:48;;;;;;;10.32;5.38;;;;;;;;;;4994433;28;20018;-62
2023/05/15 16:19:56;;;;;;;9.18;5.57;;;;;;;;;;4965052;28;20125;-63
2023/05/15 16:26:21;;;;;;;9.40;6.05;;;;;;;;;;4942928;28;20035;-63
2023/05/15 16:29:33;;;;;;;8.75;6.50;;;;;;;;;;4958414;28;20519;-61
2023/05/15 16:32:58;;;;;;;13.23;7.18;;;;;;;;;;4984338;28;20128;-62
2023/05/15 16:36:04;;;;;;;10.48;6.93;;;;;;;;;;4987074;28;20041;-64
2023/05/15 16:39:04;;;;;;;11.30;7.78;;;;;;;;;;4988621;28;20053;-62
2023/05/15 16:42:31;;;;;;;12.77;8.07;;;;;;;;;;4967009;28;20053;-60
2023/05/15 16:45:45;;;;;;;14.73;7.60;;;;;;;;;;4927410;28;20448;-63
2023/05/15 16:49:16;;;;;;;10.75;7.57;;;;;;;;;;4986767;28;20038;-61
2023/05/15 16:52:34;;;;;;;11.38;8.05;;;;;;;;;;4935602;28;20042;-63
2023/05/15 16:55:34;;;;;;;11.65;8.40;;;;;;;;;;4973788;28;20387;-61
2023/05/15 16:58:32;;;;;;;14.32;8.07;;;;;;;;;;4930299;28;20140;-59
2023/05/15 17:01:18;;;;;;;11.43;8.13;;;;;;;;;;4957413;28;20050;-62
2023/05/15 17:04:06;;;;;;;12.60;8.02;;;;;;;;;;4965254;28;20460;-62
2023/05/15 17:07:05;;;;;;;13.32;8.50;;;;;;;;;;4963243;28;20698;-60
2023/05/15 17:09:53;;;;;;;15.40;8.80;;;;;;;;;;4943167;28;20050;-60
2023/05/15 17:12:55;;;;;;;15.02;8.50;;;;;;;;;;4950916;28;21181;-64
2023/05/15 17:15:46;;;;;;;11.20;8.32;;;;;;;;;;4947714;28;20046;-62
2023/05/15 17:18:38;;;;;;;10.70;7.53;;;;;;;;;;4981240;28;20101;-63
2023/05/15 17:21:48;;;;;;;13.43;7.80;;;;;;;;;;4975901;28;20038;-57
2023/05/15 17:30:35;;;;;;;10.35;7.78;;;;;;;;;;4962876;28;20120;-63
2023/05/15 17:33:13;;;;;;;13.05;7.90;;;;;;;;;;4970920;28;20469;-62
2023/05/15 17:36:02;;;;;;;9.75;7.75;;;;;;;;;;4968295;28;20481;-62
2023/05/15 17:38:58;;;;;;;10.07;7.53;;;;;;;;;;4974766;28;20129;-64
2023/05/15 17:41:51;;;;;;;11.15;7.63;;;;;;;;;;4946672;28;23185;-60
2023/05/15 17:44:28;;;;;;;12.50;7.53;;;;;;;;;;4971555;28;20124;-65
2023/05/15 17:47:13;;;;;;;9.75;7.13;;;;;;;;;;4965623;28;20040;-68
2023/05/15 17:50:10;;;;;;;17.60;7.60;;;;;;;;;;4963926;28;20036;-63
2023/05/15 17:56:08;;;;;;;10.82;7.40;;;;;;;;;;4974305;28;20085;-65
2023/05/15 17:58:53;;;;;;;10.50;7.60;;;;;;;;;;4951649;28;20125;-65
2023/05/15 18:01:37;;;;;;;;;;;;;;;;;;4958611;28;20563;-64
2023/05/15 18:04:25;;;;;;;11.65;6.85;;;;;;;;;;4960998;28;19934;-65
2023/05/15 18:07:27;;;;;;;9.48;7.00;;;;;;;;;;4961904;28;20101;-64
2023/05/15 18:10:30;;;;;;;12.70;7.18;;;;;;;;;;4977188;28;20168;-64
2023/05/15 18:13:23;;;;;;;10.63;6.88;;;;;;;;;;4936513;28;20059;-63
2023/05/15 18:16:13;;;;;;;9.40;6.97;;;;;;;;;;4961992;28;20174;-62
2023/05/15 18:19:04;;;;;;;10.25;7.25;;;;;;;;;;4961914;28;20030;-58
2023/05/15 18:21:47;;;;;;;10.75;7.00;;;;;;;;;;4959794;28;20041;-59
2023/05/15 18:24:33;;;;;;;8.45;6.80;;;;;;;;;;4958943;28;20081;-63
2023/05/15 18:27:39;;;;;;;9.98;6.82;;;;;;;;;;4961972;28;20038;-63
2023/05/15 18:30:30;;;;;;;8.57;6.65;;;;;;;;;;4959670;28;20033;-63
2023/05/15 18:33:19;;;;;;;8.95;6.57;;;;;;;;;;4963087;28;20034;-62
2023/05/15 18:36:13;;;;;;;10.93;6.80;;;;;;;;;;4965956;28;20030;-63
2023/05/15 18:39:06;;;;;;;9.32;6.60;;;;;;;;;;4954743;28;20395;-58
2023/05/15 18:41:46;;;;;;;8.60;6.30;;;;;;;;;;4961455;28;20072;-63
2023/05/15 18:44:16;;;;;;;9.30;6.50;;;;;;;;;;4956192;28;20050;-62
2023/05/15 18:47:12;;;;;;;9.27;6.82;;;;;;;;;;4934666;28;20038;-63
2023/05/15 18:49:58;;;;;;;9.98;6.57;;;;;;;;;;4959731;28;20941;-63
2023/05/15 18:52:52;;;;;;;8.27;6.53;;;;;;;;;;4963653;28;20403;-61
2023/05/15 18:55:38;;;;;;;9.60;6.10;;;;;;;;;;4949166;28;20484;-61
2023/05/15 18:59:00;;;;;;;9.35;6.72;;;;;;;;;;4946881;28;20035;-61
2023/05/15 19:01:52;;;;;;;9.60;6.55;;;;;;;;;;4917159;28;20426;-62
2023/05/15 19:04:56;;;;;;;11.07;6.82;;;;;;;;;;4926673;28;20517;-60
2023/05/15 19:07:55;;;;;;;9.00;5.90;;;;;;;;;;4974605;28;20011;-61
2023/05/15 19:11:10;;;;;;;8.50;6.22;;;;;;;;;;4968673;28;20050;-59
2023/05/15 19:14:19;;;;;;;8.77;6.70;;;;;;;;;;4967488;28;20129;-61
2023/05/15 19:17:08;;;;;;;8.30;6.05;;;;;;;;;;4947360;28;20034;-61
2023/05/15 19:19:57;;;;;;;9.32;6.72;;;;;;;;;;4964971;28;20054;-63
2023/05/15 19:28:46;;;;;;;8.88;6.38;;;;;;;;;;4959874;28;20068;-63
2023/05/15 19:31:26;;;;;;;8.73;6.40;;;;;;;;;;4977121;28;20142;-63
2023/05/15 19:40:40;;;;;;;7.55;6.20;;;;;;;;;;4961608;28;20077;-60
2023/05/15 19:43:35;;;;;;;8.48;6.47;;;;;;;;;;4959074;28;20530;-61
2023/05/15 19:46:18;;;;;;;7.95;6.22;;;;;;;;;;4972655;28;20053;-60
2023/05/15 19:49:30;;;;;;;7.82;6.30;;;;;;;;;;4955229;28;20726;-60
2023/05/15 19:52:33;;;;;;;8.40;6.70;;;;;;;;;;4965285;28;20031;-62
2023/05/15 19:55:47;;;;;;;8.65;7.03;;;;;;;;;;4965853;28;20344;-62
2023/05/15 20:01:52;;;;;;;8.80;6.85;;;;;;;;;;4950132;28;20477;-62
2023/05/15 20:04:51;;;;;;;8.77;7.00;;;;;;;;;;4973225;28;20049;-63
2023/05/15 20:07:42;;;;;;;9.43;6.90;;;;;;;;;;4989619;28;20521;-64
2023/05/15 20:11:08;;;;;;;8.38;6.60;;;;;;;;;;4981727;28;20046;-62
2023/05/15 20:14:33;;;;;;;10.55;6.88;;;;;;;;;;4969964;28;20034;-61
2023/05/15 20:17:54;;;;;;;8.52;6.97;;;;;;;;;;4961982;28;20439;-66
2023/05/15 20:20:37;;;;;;;;;;;;;;;;;;4982619;28;20100;-64
2023/05/15 20:23:40;;;;;;;7.03;6.32;;;;;;;;;;4933822;28;19976;-66
2023/05/15 20:26:44;;;;;;;7.82;6.28;;;;;;;;;;4962854;28;20045;-69
2023/05/15 20:29:50;;;;;;;9.10;7.07;;;;;;;;;;4963745;28;20034;-59
2023/05/15 20:32:37;;;;;;;8.90;7.22;;;;;;;;;;4961634;28;20046;-68
2023/05/15 20:35:36;;;;;;;8.40;6.95;;;;;;;;;;4956334;28;20121;-70
2023/05/15 20:38:35;;;;;;;7.85;6.70;;;;;;;;;;4949635;28;20363;-68
2023/05/15 20:41:26;;;;;;;8.32;6.40;;;;;;;;;;4945015;28;20031;-64
2023/05/15 20:44:19;;;;;;;9.18;6.75;;;;;;;;;;4958063;28;20051;-68
2023/05/15 20:47:07;;;;;;;10.38;7.00;;;;;;;;;;4951670;28;20038;-67
2023/05/15 20:49:58;;;;;;;8.20;6.68;;;;;;;;;;4965105;28;20158;-63
2023/05/15 20:55:42;;;;;;;8.55;6.93;;;;;;;;;;4955106;28;20513;-68
2023/05/15 21:01:34;;;;;;;8.27;6.30;;;;;;;;;;4959988;28;20243;-66
2023/05/15 21:04:25;;;;;;;8.10;6.07;;;;;;;;;;4939235;28;20064;-69